createdAt,value
2023-05-22T00:00:22.547Z,874.00
2023-05-22T00:01:22.487Z,873.00
2023-05-22T00:02:22.551Z,861.00
2023-05-22T00:03:22.543Z,862.00
2023-05-22T00:04:22.486Z,865.00
2023-05-22T00:05:22.743Z,859.00
2023-05-22T00:06:22.521Z,872.00
2023-05-22T00:07:22.535Z,868.00
2023-05-22T00:08:22.499Z,870.00
2023-05-22T00:09:22.515Z,876.00
2023-05-22T00:10:22.509Z,858.00
2023-05-22T00:11:22.521Z,859.00
2023-05-22T00:12:22.499Z,858.00
2023-05-22T00:13:22.553Z,865.00
2023-05-22T00:14:22.549Z,858.00
2023-05-22T00:15:22.572Z,850.00
2023-05-22T00:16:22.591Z,843.00
2023-05-22T00:17:22.690Z,863.00
2023-05-22T00:18:22.538Z,849.00
2023-05-22T00:19:22.566Z,864.00
2023-05-22T00:20:22.525Z,848.00
2023-05-22T00:21:22.549Z,852.00
2023-05-22T00:22:22.910Z,841.00
2023-05-22T00:23:22.547Z,856.00
2023-05-22T00:24:22.564Z,855.00
2023-05-22T00:25:22.587Z,836.00
2023-05-22T00:26:22.635Z,854.00
2023-05-22T00:27:22.644Z,814.00
2023-05-22T00:28:22.580Z,800.00
2023-05-22T00:29:22.603Z,802.00
2023-05-22T00:30:22.594Z,803.00
2023-05-22T00:31:22.617Z,791.00
2023-05-22T00:32:22.688Z,784.00
2023-05-22T00:33:22.649Z,793.00
2023-05-22T00:34:22.680Z,809.00
2023-05-22T00:35:22.620Z,811.00
2023-05-22T00:36:22.643Z,790.00
2023-05-22T00:37:22.895Z,801.00
2023-05-22T00:38:22.670Z,771.00
2023-05-22T00:39:22.673Z,777.00
2023-05-22T00:40:23.435Z,786.00
2023-05-22T00:41:22.633Z,784.00
2023-05-22T00:42:22.704Z,782.00
2023-05-22T00:43:22.628Z,795.00
2023-05-22T00:44:22.654Z,786.00
2023-05-22T00:45:22.668Z,800.00
2023-05-22T00:46:22.710Z,792.00
2023-05-22T00:47:22.710Z,791.00
2023-05-22T00:48:22.637Z,796.00
2023-05-22T00:49:22.637Z,787.00
2023-05-22T00:50:22.685Z,790.00
2023-05-22T00:51:22.670Z,767.00
2023-05-22T00:52:22.705Z,785.00
2023-05-22T00:53:22.723Z,785.00
2023-05-22T00:54:22.667Z,793.00
2023-05-22T00:55:22.698Z,781.00
2023-05-22T00:56:22.699Z,774.00
2023-05-22T00:57:22.762Z,763.00
2023-05-22T00:58:22.686Z,784.00
2023-05-22T00:59:22.704Z,771.00
2023-05-22T01:00:22.683Z,777.00
2023-05-22T01:01:22.756Z,789.00
2023-05-22T01:02:22.716Z,771.00
2023-05-22T01:03:22.822Z,782.00
2023-05-22T01:04:22.726Z,783.00
2023-05-22T01:05:22.704Z,769.00
2023-05-22T01:06:22.789Z,780.00
2023-05-22T01:07:22.723Z,768.00
2023-05-22T01:08:22.758Z,777.00
2023-05-22T01:09:22.762Z,777.00
2023-05-22T01:10:22.756Z,773.00
2023-05-22T01:11:22.782Z,775.00
2023-05-22T01:12:22.777Z,780.00
2023-05-22T01:13:22.813Z,771.00
2023-05-22T01:14:22.794Z,775.00
2023-05-22T01:15:22.800Z,772.00
2023-05-22T01:16:22.895Z,771.00
2023-05-22T01:17:22.866Z,774.00
2023-05-22T01:18:22.821Z,780.00
2023-05-22T01:19:22.927Z,781.00
2023-05-22T01:20:22.871Z,766.00
2023-05-22T01:21:22.903Z,759.00
2023-05-22T01:22:22.892Z,769.00
2023-05-22T01:23:22.920Z,744.00
2023-05-22T01:24:22.908Z,769.00
2023-05-22T01:25:23.425Z,754.00
2023-05-22T01:26:22.942Z,771.00
2023-05-22T01:27:22.918Z,776.00
2023-05-22T01:28:22.945Z,761.00
2023-05-22T01:29:22.954Z,768.00
2023-05-22T01:30:22.968Z,758.00
2023-05-22T01:31:22.972Z,759.00
2023-05-22T01:32:23.036Z,765.00
2023-05-22T01:33:23.035Z,762.00
2023-05-22T01:34:23.035Z,773.00
2023-05-22T01:35:23.037Z,769.00
2023-05-22T01:36:23.021Z,773.00
2023-05-22T01:37:23.059Z,763.00
2023-05-22T01:38:23.038Z,758.00
2023-05-22T01:39:23.053Z,774.00
2023-05-22T01:40:23.032Z,759.00
2023-05-22T01:41:23.108Z,754.00
2023-05-22T01:42:23.074Z,764.00
2023-05-22T01:43:23.099Z,765.00
2023-05-22T01:44:23.076Z,753.00
2023-05-22T01:45:23.124Z,767.00
2023-05-22T01:46:23.118Z,756.00
2023-05-22T01:47:23.133Z,767.00
2023-05-22T01:48:23.131Z,754.00
2023-05-22T01:49:23.094Z,737.00
2023-05-22T01:50:23.096Z,754.00
2023-05-22T01:51:23.124Z,757.00
2023-05-22T01:52:23.110Z,742.00
2023-05-22T01:53:23.116Z,757.00
2023-05-22T01:54:23.120Z,745.00
2023-05-22T01:55:23.115Z,752.00
2023-05-22T01:56:23.118Z,751.00
2023-05-22T01:57:23.138Z,742.00
2023-05-22T01:58:23.145Z,743.00
2023-05-22T01:59:23.198Z,738.00
2023-05-22T02:00:23.168Z,730.00
2023-05-22T02:01:23.223Z,739.00
2023-05-22T02:02:23.646Z,734.00
2023-05-22T02:03:23.302Z,739.00
2023-05-22T02:04:23.184Z,745.00
2023-05-22T02:05:23.186Z,735.00
2023-05-22T02:06:23.226Z,731.00
2023-05-22T02:07:23.199Z,740.00
2023-05-22T02:08:23.269Z,739.00
2023-05-22T02:09:23.252Z,739.00
2023-05-22T02:10:23.242Z,738.00
2023-05-22T02:11:23.291Z,740.00
2023-05-22T02:12:23.260Z,721.00
2023-05-22T02:13:23.309Z,732.00
2023-05-22T02:14:23.271Z,735.00
2023-05-22T02:15:23.341Z,724.00
2023-05-22T02:16:23.346Z,715.00
2023-05-22T02:17:23.322Z,722.00
2023-05-22T02:18:23.338Z,725.00
2023-05-22T02:19:23.435Z,725.00
2023-05-22T02:20:23.353Z,732.00
2023-05-22T02:21:23.394Z,724.00
2023-05-22T02:22:23.412Z,717.00
2023-05-22T02:23:23.422Z,724.00
2023-05-22T02:24:23.414Z,723.00
2023-05-22T02:25:23.472Z,725.00
2023-05-22T02:26:23.455Z,716.00
2023-05-22T02:27:23.445Z,723.00
2023-05-22T02:28:23.500Z,715.00
2023-05-22T02:29:23.491Z,720.00
2023-05-22T02:30:23.475Z,696.00
2023-05-22T02:31:23.512Z,710.00
2023-05-22T02:32:23.562Z,694.00
2023-05-22T02:33:23.536Z,696.00
2023-05-22T02:34:23.524Z,705.00
2023-05-22T02:35:23.555Z,712.00
2023-05-22T02:36:23.526Z,711.00
2023-05-22T02:37:23.519Z,706.00
2023-05-22T02:38:23.551Z,707.00
2023-05-22T02:39:23.534Z,697.00
2023-05-22T02:40:23.576Z,696.00
2023-05-22T02:41:23.573Z,698.00
2023-05-22T02:42:23.575Z,697.00
2023-05-22T02:43:23.608Z,688.00
2023-05-22T02:44:23.621Z,706.00
2023-05-22T02:45:23.635Z,701.00
2023-05-22T02:46:23.674Z,698.00
2023-05-22T02:47:23.628Z,702.00
2023-05-22T02:48:23.671Z,691.00
2023-05-22T02:49:23.644Z,691.00
2023-05-22T02:50:23.698Z,689.00
2023-05-22T02:51:23.704Z,694.00
2023-05-22T02:52:23.694Z,699.00
2023-05-22T02:53:23.720Z,686.00
2023-05-22T02:54:23.706Z,694.00
2023-05-22T02:55:23.720Z,697.00
2023-05-22T02:56:23.764Z,691.00
2023-05-22T02:57:23.799Z,697.00
2023-05-22T02:58:23.775Z,688.00
2023-05-22T02:59:23.787Z,694.00
2023-05-22T03:00:23.813Z,679.00
2023-05-22T03:01:23.853Z,686.00
2023-05-22T03:02:23.989Z,690.00
2023-05-22T03:03:23.976Z,694.00
2023-05-22T03:04:23.838Z,678.00
2023-05-22T03:05:23.835Z,681.00
2023-05-22T03:06:23.856Z,676.00
2023-05-22T03:07:23.906Z,686.00
2023-05-22T03:08:23.877Z,671.00
2023-05-22T03:09:23.926Z,676.00
2023-05-22T03:10:23.916Z,665.00
2023-05-22T03:11:23.919Z,683.00
2023-05-22T03:12:23.937Z,679.00
2023-05-22T03:13:23.977Z,685.00
2023-05-22T03:14:24.022Z,675.00
2023-05-22T03:15:23.999Z,688.00
2023-05-22T03:16:24.101Z,681.00
2023-05-22T03:17:24.009Z,681.00
2023-05-22T03:18:26.661Z,679.00
2023-05-22T03:19:24.176Z,686.00
2023-05-22T03:20:24.025Z,680.00
2023-05-22T03:21:23.987Z,675.00
2023-05-22T03:22:24.018Z,665.00
2023-05-22T03:23:23.979Z,679.00
2023-05-22T03:24:23.973Z,671.00
2023-05-22T03:25:23.967Z,667.00
2023-05-22T03:26:23.992Z,671.00
2023-05-22T03:27:23.963Z,664.00
2023-05-22T03:28:23.946Z,660.00
2023-05-22T03:29:23.970Z,664.00
2023-05-22T03:30:23.957Z,665.00
2023-05-22T03:31:23.960Z,661.00
2023-05-22T03:32:24.002Z,666.00
2023-05-22T03:33:23.954Z,660.00
2023-05-22T03:34:23.914Z,664.00
2023-05-22T03:35:23.977Z,663.00
2023-05-22T03:36:23.890Z,668.00
2023-05-22T03:37:24.002Z,661.00
2023-05-22T03:38:23.870Z,659.00
2023-05-22T03:39:23.879Z,665.00
2023-05-22T03:40:23.862Z,667.00
2023-05-22T03:41:23.870Z,663.00
2023-05-22T03:42:23.904Z,657.00
2023-05-22T03:43:23.842Z,650.00
2023-05-22T03:44:23.880Z,662.00
2023-05-22T03:45:23.861Z,660.00
2023-05-22T03:46:23.864Z,663.00
2023-05-22T03:47:23.890Z,664.00
2023-05-22T03:48:23.809Z,658.00
2023-05-22T03:49:23.825Z,655.00
2023-05-22T03:50:23.819Z,657.00
2023-05-22T03:51:23.797Z,657.00
2023-05-22T03:52:23.791Z,658.00
2023-05-22T03:53:23.767Z,654.00
2023-05-22T03:54:23.814Z,659.00
2023-05-22T03:55:23.793Z,655.00
2023-05-22T03:56:23.780Z,656.00
2023-05-22T03:57:23.757Z,656.00
2023-05-22T03:58:23.746Z,648.00
2023-05-22T03:59:23.746Z,659.00
2023-05-22T04:00:25.244Z,657.00
2023-05-22T04:01:23.727Z,657.00
2023-05-22T04:02:23.840Z,657.00
2023-05-22T04:03:23.922Z,657.00
2023-05-22T04:04:23.715Z,655.00
2023-05-22T04:05:23.739Z,646.00
2023-05-22T04:06:23.696Z,656.00
2023-05-22T04:07:23.687Z,652.00
2023-05-22T04:08:23.700Z,646.00
2023-05-22T04:09:23.632Z,649.00
2023-05-22T04:10:23.665Z,651.00
2023-05-22T04:11:23.653Z,647.00
2023-05-22T04:12:23.676Z,649.00
2023-05-22T04:13:23.631Z,646.00
2023-05-22T04:14:23.637Z,648.00
2023-05-22T04:15:23.622Z,639.00
2023-05-22T04:16:23.718Z,643.00
2023-05-22T04:17:23.651Z,644.00
2023-05-22T04:18:23.632Z,639.00
2023-05-22T04:19:23.607Z,642.00
2023-05-22T04:20:23.564Z,648.00
2023-05-22T04:21:23.572Z,641.00
2023-05-22T04:22:23.590Z,643.00
2023-05-22T04:23:23.573Z,636.00
2023-05-22T04:24:23.525Z,637.00
2023-05-22T04:25:23.573Z,638.00
2023-05-22T04:26:23.533Z,642.00
2023-05-22T04:27:23.506Z,639.00
2023-05-22T04:28:23.520Z,637.00
2023-05-22T04:29:23.492Z,641.00
2023-05-22T04:30:23.527Z,638.00
2023-05-22T04:31:23.596Z,630.00
2023-05-22T04:32:23.518Z,639.00
2023-05-22T04:33:23.484Z,640.00
2023-05-22T04:34:23.479Z,640.00
2023-05-22T04:35:23.437Z,640.00
2023-05-22T04:36:23.479Z,630.00
2023-05-22T04:37:23.487Z,636.00
2023-05-22T04:38:23.440Z,633.00
2023-05-22T04:39:23.873Z,635.00
2023-05-22T04:40:23.430Z,633.00
2023-05-22T04:41:23.404Z,628.00
2023-05-22T04:42:23.416Z,634.00
2023-05-22T04:43:23.436Z,632.00
2023-05-22T04:44:23.398Z,630.00
2023-05-22T04:45:23.398Z,627.00
2023-05-22T04:46:23.407Z,624.00
2023-05-22T04:47:23.462Z,630.00
2023-05-22T04:48:23.350Z,624.00
2023-05-22T04:49:23.356Z,625.00
2023-05-22T04:50:23.375Z,628.00
2023-05-22T04:51:23.340Z,631.00
2023-05-22T04:52:23.402Z,627.00
2023-05-22T04:53:23.332Z,621.00
2023-05-22T04:54:23.355Z,629.00
2023-05-22T04:55:23.316Z,626.00
2023-05-22T04:56:35.603Z,619.00
2023-05-22T04:57:24.288Z,620.00
2023-05-22T04:58:23.325Z,620.00
2023-05-22T04:59:23.282Z,622.00
2023-05-22T05:00:23.253Z,621.00
2023-05-22T05:01:23.266Z,626.00
2023-05-22T05:02:23.419Z,628.00
2023-05-22T05:03:23.308Z,621.00
2023-05-22T05:04:23.256Z,624.00
2023-05-22T05:05:23.231Z,621.00
2023-05-22T05:06:23.236Z,623.00
2023-05-22T05:07:23.201Z,624.00
2023-05-22T05:08:23.273Z,620.00
2023-05-22T05:09:23.204Z,622.00
2023-05-22T05:10:23.188Z,615.00
2023-05-22T05:11:23.187Z,619.00
2023-05-22T05:12:23.164Z,616.00
2023-05-22T05:13:23.161Z,616.00
2023-05-22T05:14:23.190Z,611.00
2023-05-22T05:15:23.182Z,619.00
2023-05-22T05:16:23.241Z,616.00
2023-05-22T05:17:23.134Z,609.00
2023-05-22T05:18:23.159Z,614.00
2023-05-22T05:19:23.135Z,614.00
2023-05-22T05:20:23.122Z,616.00
2023-05-22T05:21:23.102Z,620.00
2023-05-22T05:22:23.172Z,615.00
2023-05-22T05:23:23.060Z,610.00
2023-05-22T05:24:23.079Z,614.00
2023-05-22T05:25:23.088Z,614.00
2023-05-22T05:26:23.091Z,613.00
2023-05-22T05:27:23.145Z,607.00
2023-05-22T05:28:23.072Z,612.00
2023-05-22T05:29:23.101Z,608.00
2023-05-22T05:30:23.140Z,611.00
2023-05-22T05:31:23.112Z,609.00
2023-05-22T05:32:23.326Z,613.00
2023-05-22T05:33:23.135Z,601.00
2023-05-22T05:34:23.105Z,608.00
2023-05-22T05:35:23.157Z,606.00
2023-05-22T05:36:23.156Z,609.00
2023-05-22T05:37:23.164Z,609.00
2023-05-22T05:38:23.144Z,608.00
2023-05-22T05:39:23.149Z,609.00
2023-05-22T05:40:23.122Z,606.00
2023-05-22T05:41:23.158Z,604.00
2023-05-22T05:42:23.137Z,605.00
2023-05-22T05:43:23.143Z,608.00
2023-05-22T05:44:23.162Z,601.00
2023-05-22T05:45:23.142Z,610.00
2023-05-22T05:46:23.211Z,605.00
2023-05-22T05:47:23.188Z,609.00
2023-05-22T05:48:23.150Z,606.00
2023-05-22T05:49:23.172Z,605.00
2023-05-22T05:50:23.182Z,604.00
2023-05-22T05:51:23.193Z,598.00
2023-05-22T05:52:23.207Z,606.00
2023-05-22T05:53:23.188Z,603.00
2023-05-22T05:54:23.250Z,604.00
2023-05-22T05:55:23.226Z,602.00
2023-05-22T05:56:23.210Z,604.00
2023-05-22T05:57:23.193Z,609.00
2023-05-22T05:58:23.226Z,607.00
2023-05-22T05:59:23.205Z,609.00
2023-05-22T06:00:23.224Z,604.00
2023-05-22T06:01:23.200Z,602.00
2023-05-22T06:02:23.274Z,596.00
2023-05-22T06:03:23.293Z,589.00
2023-05-22T06:04:23.253Z,575.00
2023-05-22T06:05:23.371Z,569.00
2023-05-22T06:06:23.272Z,568.00
2023-05-22T06:07:23.293Z,582.00
2023-05-22T06:08:23.274Z,584.00
2023-05-22T06:09:23.286Z,596.00
2023-05-22T06:10:23.309Z,599.00
2023-05-22T06:11:23.291Z,598.00
2023-05-22T06:12:23.319Z,599.00
2023-05-22T06:13:23.343Z,593.00
2023-05-22T06:14:23.317Z,593.00
2023-05-22T06:15:23.430Z,600.00
2023-05-22T06:16:23.338Z,584.00
2023-05-22T06:17:23.482Z,588.00
2023-05-22T06:18:23.344Z,595.00
2023-05-22T06:19:23.440Z,589.00
2023-05-22T06:20:23.387Z,600.00
2023-05-22T06:21:23.433Z,600.00
2023-05-22T06:22:23.479Z,601.00
2023-05-22T06:23:23.455Z,604.00
2023-05-22T06:24:23.455Z,620.00
2023-05-22T06:25:23.534Z,617.00
2023-05-22T06:26:23.629Z,627.00
2023-05-22T06:27:23.622Z,635.00
2023-05-22T06:28:23.663Z,629.00
2023-05-22T06:29:23.716Z,620.00
2023-05-22T06:30:38.816Z,621.00
2023-05-22T06:31:24.792Z,621.00
2023-05-22T06:32:23.839Z,618.00
2023-05-22T06:33:23.843Z,620.00
2023-05-22T06:34:23.819Z,624.00
2023-05-22T06:35:23.700Z,624.00
2023-05-22T06:36:23.720Z,626.00
2023-05-22T06:37:24.112Z,622.00
2023-05-22T06:38:23.700Z,627.00
2023-05-22T06:39:23.689Z,624.00
2023-05-22T06:40:23.734Z,626.00
2023-05-22T06:41:23.779Z,629.00
2023-05-22T06:42:23.879Z,636.00
2023-05-22T06:43:23.859Z,640.00
2023-05-22T06:44:23.957Z,642.00
2023-05-22T06:45:24.010Z,642.00
2023-05-22T06:46:25.915Z,645.00
2023-05-22T06:47:24.254Z,647.00
2023-05-22T06:48:24.202Z,649.00
2023-05-22T06:49:24.237Z,660.00
2023-05-22T06:50:24.274Z,657.00
2023-05-22T06:51:24.426Z,680.00
2023-05-22T06:52:24.412Z,689.00
2023-05-22T06:53:24.455Z,694.00
2023-05-22T06:54:24.518Z,694.00
2023-05-22T06:55:24.541Z,686.00
2023-05-22T06:56:25.589Z,695.00
2023-05-22T06:57:24.713Z,707.00
2023-05-22T06:58:24.703Z,683.00
2023-05-22T06:59:24.770Z,687.00
2023-05-22T07:00:24.824Z,689.00
2023-05-22T07:01:24.955Z,686.00
2023-05-22T07:02:24.945Z,698.00
2023-05-22T07:03:25.018Z,697.00
2023-05-22T07:04:24.975Z,684.00
2023-05-22T07:05:25.061Z,700.00
2023-05-22T07:06:25.111Z,702.00
2023-05-22T07:07:25.176Z,711.00
2023-05-22T07:08:25.176Z,719.00
2023-05-22T07:09:25.222Z,715.00
2023-05-22T07:10:25.299Z,712.00
2023-05-22T07:11:25.300Z,721.00
2023-05-22T07:12:25.345Z,709.00
2023-05-22T07:13:25.383Z,715.00
2023-05-22T07:14:25.438Z,717.00
2023-05-22T07:15:25.489Z,702.00
2023-05-22T07:16:25.616Z,706.00
2023-05-22T07:17:25.581Z,719.00
2023-05-22T07:18:25.626Z,720.00
2023-05-22T07:19:25.683Z,734.00
2023-05-22T07:20:25.733Z,756.00
2023-05-22T07:21:25.740Z,778.00
2023-05-22T07:22:25.787Z,781.00
2023-05-22T07:23:26.412Z,779.00
2023-05-22T07:24:25.853Z,782.00
2023-05-22T07:25:25.908Z,792.00
2023-05-22T07:26:25.914Z,793.00
2023-05-22T07:27:25.980Z,780.00
2023-05-22T07:28:25.985Z,770.00
2023-05-22T07:29:26.045Z,778.00
2023-05-22T07:30:26.074Z,792.00
2023-05-22T07:31:26.142Z,789.00
2023-05-22T07:32:26.201Z,787.00
2023-05-22T07:33:26.169Z,821.00
2023-05-22T07:34:27.856Z,810.00
2023-05-22T07:35:26.495Z,800.00
2023-05-22T07:36:26.279Z,797.00
2023-05-22T07:37:26.621Z,795.00
2023-05-22T07:38:26.442Z,794.00
2023-05-22T07:39:26.405Z,782.00
2023-05-22T07:40:26.824Z,786.00
2023-05-22T07:41:26.500Z,795.00
2023-05-22T07:42:26.530Z,794.00
2023-05-22T07:43:26.567Z,783.00
2023-05-22T07:44:26.570Z,807.00
2023-05-22T07:45:26.644Z,838.00
2023-05-22T07:46:26.692Z,833.00
2023-05-22T07:47:26.748Z,815.00
2023-05-22T07:48:26.780Z,817.00
2023-05-22T07:49:26.904Z,856.00
2023-05-22T07:50:26.946Z,859.00
2023-05-22T07:51:26.984Z,853.00
2023-05-22T07:52:26.913Z,849.00
2023-05-22T07:53:26.951Z,847.00
2023-05-22T07:54:26.942Z,847.00
2023-05-22T07:55:26.966Z,838.00
2023-05-22T07:56:27.002Z,834.00
2023-05-22T07:57:27.050Z,823.00
2023-05-22T07:58:27.111Z,829.00
2023-05-22T07:59:27.130Z,827.00
2023-05-22T08:00:27.147Z,844.00
2023-05-22T08:01:27.171Z,831.00
2023-05-22T08:02:27.394Z,830.00
2023-05-22T08:03:27.309Z,832.00
2023-05-22T08:04:27.293Z,847.00
2023-05-22T08:05:27.306Z,865.00
2023-05-22T08:06:27.333Z,831.00
2023-05-22T08:07:27.548Z,865.00
2023-05-22T08:08:28.904Z,879.00
2023-05-22T08:09:27.421Z,874.00
2023-05-22T08:10:29.993Z,852.00
2023-05-22T08:11:28.366Z,854.00
2023-05-22T08:12:27.339Z,852.00
2023-05-22T08:13:27.377Z,820.00
2023-05-22T08:14:27.385Z,801.00
2023-05-22T08:15:27.398Z,784.00
2023-05-22T08:16:27.335Z,766.00
2023-05-22T08:17:27.384Z,730.00
2023-05-22T08:18:27.305Z,714.00
2023-05-22T08:19:27.456Z,693.00
2023-05-22T08:20:27.378Z,687.00
2023-05-22T08:21:27.335Z,677.00
2023-05-22T08:22:27.448Z,666.00
2023-05-22T08:23:27.476Z,661.00
2023-05-22T08:24:27.489Z,658.00
2023-05-22T08:25:27.573Z,635.00
2023-05-22T08:26:27.870Z,639.00
2023-05-22T08:27:28.209Z,644.00
2023-05-22T08:28:27.725Z,639.00
2023-05-22T08:29:27.795Z,635.00
2023-05-22T08:30:27.821Z,631.00
2023-05-22T08:31:27.929Z,626.00
2023-05-22T08:32:29.326Z,631.00
2023-05-22T08:33:27.910Z,641.00
2023-05-22T08:34:27.897Z,633.00
2023-05-22T08:35:27.894Z,617.00
2023-05-22T08:36:27.886Z,618.00
2023-05-22T08:37:27.909Z,618.00
2023-05-22T08:38:27.902Z,632.00
2023-05-22T08:39:28.034Z,646.00
2023-05-22T08:40:27.869Z,656.00
2023-05-22T08:41:27.847Z,644.00
2023-05-22T08:42:27.872Z,652.00
2023-05-22T08:43:27.839Z,654.00
2023-05-22T08:44:27.843Z,651.00
2023-05-22T08:45:27.845Z,652.00
2023-05-22T08:46:27.873Z,656.00
2023-05-22T08:47:27.832Z,652.00
2023-05-22T08:48:27.782Z,656.00
2023-05-22T08:49:27.815Z,658.00
2023-05-22T08:50:27.827Z,665.00
2023-05-22T08:51:27.763Z,691.00
2023-05-22T08:52:27.789Z,695.00
2023-05-22T08:53:27.785Z,703.00
2023-05-22T08:54:27.780Z,702.00
2023-05-22T08:55:27.780Z,701.00
2023-05-22T08:56:29.649Z,705.00
2023-05-22T08:57:27.735Z,707.00
2023-05-22T08:58:27.703Z,698.00
2023-05-22T08:59:27.733Z,692.00
2023-05-22T09:00:27.716Z,696.00
2023-05-22T09:01:27.762Z,694.00
2023-05-22T09:02:27.694Z,663.00
2023-05-22T09:03:27.827Z,660.00
2023-05-22T09:04:27.825Z,654.00
2023-05-22T09:05:27.845Z,658.00
2023-05-22T09:06:27.904Z,659.00
2023-05-22T09:07:27.963Z,665.00
2023-05-22T09:08:28.035Z,660.00
2023-05-22T09:09:28.055Z,653.00
2023-05-22T09:10:28.124Z,656.00
2023-05-22T09:11:28.195Z,651.00
2023-05-22T09:12:28.226Z,640.00
2023-05-22T09:13:28.366Z,639.00
2023-05-22T09:14:28.295Z,639.00
2023-05-22T09:15:28.436Z,634.00
2023-05-22T09:16:28.416Z,632.00
2023-05-22T09:17:28.531Z,633.00
2023-05-22T09:18:28.505Z,636.00
2023-05-22T09:19:28.578Z,646.00
2023-05-22T09:20:28.583Z,653.00
2023-05-22T09:21:30.553Z,664.00
2023-05-22T09:22:28.643Z,666.00
2023-05-22T09:23:28.697Z,647.00
2023-05-22T09:24:28.737Z,632.00
2023-05-22T09:25:28.802Z,648.00
2023-05-22T09:26:28.790Z,658.00
2023-05-22T09:27:28.914Z,642.00
2023-05-22T09:28:28.886Z,640.00
2023-05-22T09:29:28.914Z,646.00
2023-05-22T09:30:29.018Z,634.00
2023-05-22T09:31:29.112Z,626.00
2023-05-22T09:32:29.081Z,605.00
2023-05-22T09:33:29.126Z,574.00
2023-05-22T09:34:29.131Z,538.00
2023-05-22T09:35:29.165Z,537.00
2023-05-22T09:36:29.195Z,544.00
2023-05-22T09:37:29.257Z,537.00
2023-05-22T09:38:29.263Z,550.00
2023-05-22T09:39:29.300Z,539.00
2023-05-22T09:40:29.368Z,537.00
2023-05-22T09:41:29.356Z,550.00
2023-05-22T09:42:29.441Z,548.00
2023-05-22T09:43:29.448Z,563.00
2023-05-22T09:44:29.469Z,560.00
2023-05-22T09:45:29.489Z,544.00
2023-05-22T09:46:29.552Z,560.00
2023-05-22T09:47:29.613Z,584.00
2023-05-22T09:48:29.670Z,572.00
2023-05-22T09:49:29.606Z,560.00
2023-05-22T09:50:29.651Z,581.00
2023-05-22T09:51:29.673Z,567.00
2023-05-22T09:52:29.716Z,552.00
2023-05-22T09:53:30.299Z,555.00
2023-05-22T09:54:29.801Z,546.00
2023-05-22T09:55:29.814Z,516.00
2023-05-22T09:56:38.558Z,506.00
2023-05-22T09:57:30.849Z,506.00
2023-05-22T09:58:29.843Z,496.00
2023-05-22T09:59:29.859Z,511.00
2023-05-22T10:00:29.776Z,485.00
2023-05-22T10:01:29.776Z,488.00
2023-05-22T10:02:29.761Z,499.00
2023-05-22T10:03:29.788Z,502.00
2023-05-22T10:04:29.786Z,506.00
2023-05-22T10:05:29.752Z,525.00
2023-05-22T10:06:29.792Z,533.00
2023-05-22T10:07:29.740Z,560.00
2023-05-22T10:08:29.774Z,544.00
2023-05-22T10:09:29.812Z,534.00
2023-05-22T10:10:29.679Z,548.00
2023-05-22T10:11:29.681Z,603.00
2023-05-22T10:12:29.676Z,621.00
2023-05-22T10:13:29.735Z,619.00
2023-05-22T10:14:31.008Z,599.00
2023-05-22T10:15:29.877Z,586.00
2023-05-22T10:16:29.801Z,589.00
2023-05-22T10:17:29.805Z,575.00
2023-05-22T10:18:29.792Z,589.00
2023-05-22T10:19:29.887Z,571.00
2023-05-22T10:20:29.861Z,541.00
2023-05-22T10:21:29.817Z,540.00
2023-05-22T10:22:29.898Z,544.00
2023-05-22T10:23:29.891Z,534.00
2023-05-22T10:24:29.868Z,522.00
2023-05-22T10:25:29.909Z,518.00
2023-05-22T10:26:29.878Z,524.00
2023-05-22T10:27:29.932Z,503.00
2023-05-22T10:28:29.977Z,511.00
2023-05-22T10:29:29.926Z,504.00
2023-05-22T10:30:29.947Z,512.00
2023-05-22T10:31:30.035Z,511.00
2023-05-22T10:32:30.019Z,516.00
2023-05-22T10:33:30.037Z,501.00
2023-05-22T10:34:29.977Z,513.00
2023-05-22T10:35:29.970Z,504.00
2023-05-22T10:36:30.010Z,500.00
2023-05-22T10:37:29.993Z,515.00
2023-05-22T10:38:30.031Z,519.00
2023-05-22T10:39:30.037Z,514.00
2023-05-22T10:40:30.038Z,519.00
2023-05-22T10:41:30.012Z,524.00
2023-05-22T10:42:30.021Z,517.00
2023-05-22T10:43:30.073Z,524.00
2023-05-22T10:44:30.045Z,517.00
2023-05-22T10:45:30.109Z,505.00
2023-05-22T10:46:30.105Z,500.00
2023-05-22T10:47:30.219Z,505.00
2023-05-22T10:48:30.098Z,500.00
2023-05-22T10:49:30.070Z,512.00
2023-05-22T10:50:30.111Z,501.00
2023-05-22T10:51:30.082Z,505.00
2023-05-22T10:52:30.098Z,507.00
2023-05-22T10:53:30.089Z,511.00
2023-05-22T10:54:30.118Z,515.00
2023-05-22T10:55:30.169Z,508.00
2023-05-22T10:56:30.160Z,504.00
2023-05-22T10:57:30.154Z,502.00
2023-05-22T10:58:30.161Z,503.00
2023-05-22T10:59:30.129Z,512.00
2023-05-22T11:00:30.146Z,500.00
2023-05-22T11:01:30.206Z,502.00
2023-05-22T11:02:30.245Z,500.00
2023-05-22T11:03:30.366Z,513.00
2023-05-22T11:04:30.235Z,514.00
2023-05-22T11:05:30.184Z,523.00
2023-05-22T11:06:30.196Z,517.00
2023-05-22T11:07:30.201Z,519.00
2023-05-22T11:08:30.250Z,527.00
2023-05-22T11:09:30.282Z,521.00
2023-05-22T11:10:30.252Z,525.00
2023-05-22T11:11:30.236Z,514.00
2023-05-22T11:12:30.264Z,517.00
2023-05-22T11:13:30.264Z,522.00
2023-05-22T11:14:30.284Z,523.00
2023-05-22T11:15:30.298Z,527.00
2023-05-22T11:16:30.393Z,529.00
2023-05-22T11:17:30.523Z,529.00
2023-05-22T11:18:30.385Z,524.00
2023-05-22T11:19:30.478Z,540.00
2023-05-22T11:20:30.398Z,537.00
2023-05-22T11:21:30.428Z,553.00
2023-05-22T11:22:30.449Z,560.00
2023-05-22T11:23:30.591Z,568.00
2023-05-22T11:24:30.542Z,568.00
2023-05-22T11:25:30.568Z,559.00
2023-05-22T11:26:30.633Z,556.00
2023-05-22T11:27:30.634Z,557.00
2023-05-22T11:28:30.746Z,567.00
2023-05-22T11:29:31.716Z,561.00
2023-05-22T11:30:30.811Z,552.00
2023-05-22T11:31:30.898Z,554.00
2023-05-22T11:32:30.913Z,570.00
2023-05-22T11:33:31.001Z,591.00
2023-05-22T11:34:31.024Z,571.00
2023-05-22T11:35:31.177Z,568.00
2023-05-22T11:36:31.153Z,573.00
2023-05-22T11:37:31.214Z,557.00
2023-05-22T11:38:31.276Z,561.00
2023-05-22T11:39:31.337Z,549.00
2023-05-22T11:40:31.370Z,544.00
2023-05-22T11:41:33.246Z,545.00
2023-05-22T11:42:31.520Z,552.00
2023-05-22T11:43:31.558Z,578.00
2023-05-22T11:44:31.620Z,566.00
2023-05-22T11:45:31.683Z,559.00
2023-05-22T11:46:31.727Z,543.00
2023-05-22T11:47:31.836Z,552.00
2023-05-22T11:48:31.843Z,556.00
2023-05-22T11:49:31.921Z,564.00
2023-05-22T11:50:41.641Z,591.00
2023-05-22T11:51:33.022Z,591.00
2023-05-22T11:52:31.939Z,596.00
2023-05-22T11:53:32.254Z,598.00
2023-05-22T11:54:31.897Z,630.00
2023-05-22T11:55:31.906Z,645.00
2023-05-22T11:56:31.897Z,633.00
2023-05-22T11:57:31.951Z,648.00
2023-05-22T11:58:31.868Z,643.00
2023-05-22T11:59:31.879Z,619.00
2023-05-22T12:00:32.055Z,661.00
2023-05-22T12:01:31.866Z,695.00
2023-05-22T12:02:31.920Z,693.00
2023-05-22T12:03:31.900Z,736.00
2023-05-22T12:04:31.859Z,756.00
2023-05-22T12:05:31.810Z,786.00
2023-05-22T12:06:31.871Z,777.00
2023-05-22T12:07:31.900Z,790.00
2023-05-22T12:08:31.827Z,650.00
2023-05-22T12:09:31.795Z,634.00
2023-05-22T12:10:31.843Z,643.00
2023-05-22T12:11:31.799Z,634.00
2023-05-22T12:12:31.813Z,626.00
2023-05-22T12:13:31.881Z,625.00
2023-05-22T12:14:31.833Z,592.00
2023-05-22T12:15:31.888Z,621.00
2023-05-22T12:16:31.903Z,596.00
2023-05-22T12:17:31.934Z,567.00
2023-05-22T12:18:31.909Z,516.00
2023-05-22T12:19:31.974Z,498.00
2023-05-22T12:20:32.011Z,499.00
2023-05-22T12:21:32.062Z,504.00
2023-05-22T12:22:32.125Z,506.00
2023-05-22T12:23:32.306Z,508.00
2023-05-22T12:24:32.238Z,528.00
2023-05-22T12:25:32.354Z,553.00
2023-05-22T12:26:32.350Z,556.00
2023-05-22T12:27:33.335Z,618.00
2023-05-22T12:28:32.483Z,626.00